• Join FlightAware (Why Join?)
  • Login
  • US Flag 
02:57PM EDT


 

Airport Tracker/Info


-or-


 

Live Flight TrackerFlight Track Log ✈ AAL832 ✈ 22-Jun-2013 ✈ KORD - KMIA

Flight Track Log - Related Links

Times and Time Zones

All times are in EDT time to prevent confusion due to time zone crossing. See the AAL832 flight status page for this flight to view local times or setup timezone preferences in your user account.

Time Position Orientation Groundspeed Altitude Reporting Facility
EDT Latitude Longitude Course Direction KTS MPH feet Rate Location/Type
05:52PM 41.9333 -87.9000 85° East 176 203 2,300  Level Chicago TRACON
05:53PM 41.9003 -87.8342 124° Southeast 284 327 3,700 1,440 Climbing Chicago Center
05:54PM 41.9667 -87.5884 90° East  Level FlightAware Approximate
05:54PM 41.8969 -87.7267 92° East 300 345 5,200  Level Chicago Center
05:55PM 41.9556 -87.4335 96° East  Level FlightAware Approximate
05:56PM 41.9438 -87.2786 95° East  Level FlightAware Approximate
05:56PM 41.9061 -87.6128 84° East 307 353 7,900  Level Chicago Center
05:57PM 41.9333 -87.1236 90° East  Level FlightAware Approximate
05:57PM 41.9139 -87.5031 85° East 300 345 10,900  Level Chicago Center
05:58PM 41.9334 -86.9654 85° East  Level FlightAware Approximate
05:58PM 41.9225 -87.3894 84° East 306 352 13,400  Level Chicago Center
05:59PM 41.9214 -87.2661 91° East 325 374 15,000 1,980 Climbing Chicago Center
06:00PM 41.9022 -87.0939 98° East 383 441 17,600 2,160 Climbing Chicago Center
06:01PM 41.8897 -86.9464 96° East 398 458 19,500 1,980 Climbing Chicago Center
06:02PM 41.8756 -86.7947 97° East 409 471 21,700 1,980 Climbing Chicago Center
06:03PM 41.8600 -86.6375 98° East 415 478 23,700 1,620 Climbing Chicago Center
06:04PM 41.8442 -86.4814 98° East 424 488 25,100 1,440 Climbing Chicago Center
06:05PM 41.8289 -86.3181 97° East 438 504 26,700 1,500 Climbing Chicago Center
06:06PM 41.8117 -86.1553 98° East 440 506 28,300 1,500 Climbing Chicago Center
06:07PM 41.7931 -85.9592 97° East 442 509 29,900 1,200 Climbing Chicago Center
06:08PM 41.7767 -85.7936 98° East 447 514 30,900 1,020 Climbing Chicago Center
06:09PM 41.7600 -85.6244 97° East 454 522 32,100 1,140 Climbing Chicago Center
06:10PM 41.7447 -85.4517 97° East 457 526 33,300 1,140 Climbing Chicago Center
06:11PM 41.7231 -85.2739 99° East 475 547 34,500 1,140 Climbing Chicago Center
06:12PM 41.6950 -85.1072 103° East 462 532 35,700 1,140 Climbing Chicago Center
06:13PM 41.6214 -84.9764 127° Southeast 437 503 36,900 600 Climbing Chicago Center
06:14PM 41.5475 -84.8494 128° Southeast 433 498 37,000  Climbing Chicago Center
06:15PM 41.4731 -84.7236 128° Southeast 432 497 37,000  Level Chicago Center
06:16PM 41.3972 -84.5983 129° Southeast 432 497 37,000  Level Chicago Center
06:17PM 41.3072 -84.4486 129° Southeast 432 497 37,000  Level Chicago Center
06:18PM 41.2317 -84.3242 129° Southeast 433 498 37,000  Level Chicago Center
06:19PM 41.1556 -84.1986 129° Southeast 436 502 37,000  Level Chicago Center
06:20PM 41.0789 -84.0733 129° Southeast 438 504 37,000  Level Chicago Center
06:21PM 41.0022 -83.9478 129° Southeast 439 505 37,000  Level Chicago Center
06:22PM 40.9261 -83.8214 129° Southeast 439 505 37,000  Level Chicago Center
06:23PM 40.8336 -83.6728 129° Southeast 437 503 37,000  Level Chicago Center
06:24PM 40.7567 -83.5494 129° Southeast 436 502 37,000 -60 Level Chicago Center
06:26PM 40.6656 -83.4017 129° Southeast 435 501 36,900 -60 Descending Indianapolis Center
06:27PM 40.5886 -83.2794 130° Southeast 429 494 36,900  Level Indianapolis Center
06:28PM 40.5125 -83.1572 129° Southeast 426 490 36,900  Level Indianapolis Center
06:29PM 40.4358 -83.0358 130° Southeast 426 490 36,900  Level Indianapolis Center
06:30PM 40.3586 -82.9142 130° Southeast 428 493 36,900  Level Indianapolis Center
06:31PM 40.2864 -82.7994 130° Southeast 425 489 37,000  Climbing Indianapolis Center
06:32PM 40.2056 -82.6736 130° Southeast 426 490 36,900 -60 Descending Indianapolis Center
06:33PM 40.1125 -82.5828 143° Southeast 425 489 36,900  Level Indianapolis Center
06:34PM 39.9878 -82.5653 174° South 441 507 36,900  Level Indianapolis Center
06:35PM 39.8633 -82.5478 174° South 443 510 36,900  Level Indianapolis Center
06:36PM 39.7397 -82.5308 174° South 441 507 36,900  Level Indianapolis Center
06:37PM 39.6150 -82.5136 174° South 444 511 36,900  Level Indianapolis Center
06:38PM 39.4669 -82.4942 174° South 452 520 36,900  Level Indianapolis Center
06:39PM 39.3389 -82.4772 174° South 456 525 36,900  Level Indianapolis Center
06:40PM 39.2167 -82.4619 174° South 455 524 37,000  Climbing Indianapolis Center
06:41PM 39.0969 -82.4447 174° South 440 506 37,000  Level Indianapolis Center
06:42PM 38.9742 -82.4283 174° South 442 509 37,000  Level Indianapolis Center
06:43PM 38.8514 -82.4114 174° South 444 511 37,000  Level Indianapolis Center
06:44PM 38.7311 -82.3953 174° South 437 503 37,000  Level Indianapolis Center
06:45PM 38.6119 -82.3794 174° South 431 496 37,000  Level Indianapolis Center
06:46PM 38.4697 -82.3603 174° South 430 495 37,000  Level Indianapolis Center
06:47PM 38.3494 -82.3447 174° South 435 501 37,000  Level Indianapolis Center
06:48PM 38.2300 -82.3292 174° South 431 496 37,000  Level Indianapolis Center
06:49PM 38.1011 -82.3103 173° South 430 495 37,000  Level Indianapolis Center
06:50PM 37.9847 -82.2981 175° South 421 484 37,000  Level Indianapolis Center
06:51PM 37.8656 -82.2828 174° South 426 490 37,000  Level Indianapolis Center
06:52PM 37.7467 -82.2644 173° South 427 491 37,000  Level Indianapolis Center
06:53PM 37.6289 -82.2497 174° South 424 488 37,000  Level Indianapolis Center
06:54PM 37.5133 -82.2364 175° South 415 478 37,000  Level Indianapolis Center
06:55PM 37.3967 -82.2214 174° South 418 481 37,000  Level Indianapolis Center
06:56PM 37.2794 -82.2061 174° South 420 483 37,000  Level Indianapolis Center
06:57PM 37.1628 -82.1908 174° South 418 481 37,000  Level Indianapolis Center
06:58PM 37.0458 -82.1758 174° South 417 480 37,000  Level Indianapolis Center
06:59PM 36.9086 -82.1586 174° South 420 483 37,000  Level Indianapolis Center
07:00PM 36.7906 -82.1439 174° South 421 484 37,000  Level Indianapolis Center
07:01PM 36.6728 -82.1281 174° South 423 487 37,000  Level Indianapolis Center
07:02PM 36.5544 -82.1139 175° South 423 487 37,000  Level Indianapolis Center
07:03PM 36.4356 -82.0992 174° South 427 491 37,000  Level Indianapolis Center
07:04PM 36.3139 -82.0831 174° South 424 488 37,000  Level Atlanta Center
07:05PM 36.2011 -82.0731 176° South 424 488 37,000  Level Atlanta Center
07:06PM 36.0861 -82.0578 174° South 419 482 37,000  Level Atlanta Center
07:07PM 35.9711 -82.0453 175° South 425 489 37,000  Level Atlanta Center
07:08PM 35.8542 -82.0328 175° South 425 489 37,000  Level Atlanta Center
07:09PM 35.7392 -82.0175 174° South 425 489 37,000  Level Atlanta Center
07:10PM 35.6367 -82.0072 175° South 425 489 37,000  Level Atlanta Center
07:11PM 35.5217 -81.9922 174° South 418 481 37,000  Level Atlanta Center
07:12PM 35.4069 -81.9800 175° South 423 487 37,000  Level Atlanta Center
07:13PM 35.2939 -81.9650 174° South 423 487 37,000 -360 Level Atlanta Center
07:14PM 35.1789 -81.9500 174° South 418 481 36,300 -540 Descending Atlanta Center
07:15PM 35.0658 -81.9350 174° South 418 481 36,000 -180 Descending Atlanta Center
07:16PM 34.9533 -81.9456 184° South 412 474 36,000  Level Atlanta Center
07:17PM 34.8431 -81.9636 188° South 406 467 36,000  Level Atlanta Center
07:18PM 34.7350 -81.9814 188° South 406 467 36,000  Level Atlanta Center
07:19PM 34.6247 -82.0017 189° South 406 467 36,000  Level Atlanta Center
07:20PM 34.5164 -82.0194 188° South 406 467 36,000  Level Atlanta Center
07:21PM 34.4083 -82.0372 188° South 406 467 36,000  Level Atlanta Center
07:22PM 34.2981 -82.0572 189° South 406 467 36,000  Level Atlanta Center
07:23PM 34.1897 -82.0775 189° South 406 467 36,000  Level Atlanta Center
07:24PM 34.0794 -82.0950 187° South 406 467 36,000  Level Atlanta Center
07:25PM 33.9711 -82.1150 189° South 406 467 36,000  Level Atlanta Center
07:26PM 33.8608 -82.1325 188° South 406 467 36,000  Level Atlanta Center
07:27PM 33.7525 -82.1475 187° South 406 467 36,000  Level Atlanta Center
07:28PM 33.6394 -82.1250 171° South 406 467 36,000  Level Atlanta Center
07:29PM 33.5283 -82.0950 167° South 406 467 36,000  Level Atlanta Center
07:30PM 33.4214 -82.0600 165° South 406 467 36,000  Level Atlanta Center
07:31PM 33.3122 -82.0228 164° South 411 473 36,000  Level Atlanta Center
07:32PM 33.2011 -81.9858 164° South 416 479 36,000  Level Atlanta Center
07:35PM 32.9589 -82.0261 188° South 400 460 36,000  Level Jacksonville Center
07:36PM 32.8486 -82.0519 191° South 406 467 36,000  Level Jacksonville Center
07:37PM 32.7358 -82.0728 189° South 411 473 36,000  Level Jacksonville Center
07:38PM 32.6253 -82.0983 191° South 411 473 36,000  Level Jacksonville Center
07:39PM 32.5128 -82.1239 191° South 411 473 36,000  Level Jacksonville Center
07:40PM 32.4169 -82.1469 191° South 411 473 36,000  Level Jacksonville Center
07:41PM 32.2939 -82.1750 191° South 412 474 36,000  Level Jacksonville Center
07:42PM 32.1939 -82.1953 190° South 412 474 36,000  Level Jacksonville Center
07:43PM 32.0667 -82.2208 190° South 417 480 36,000  Level Jacksonville Center
07:44PM 31.9494 -82.1922 168° South 422 486 36,000  Level Jacksonville Center
07:45PM 31.8469 -82.1492 160° South 429 494 36,000  Level Jacksonville Center
07:46PM 31.7172 -82.0939 160° South 449 517 36,000  Level Jacksonville Center
07:47PM 31.6019 -82.0461 161° South 449 517 36,000  Level Jacksonville Center
07:48PM 31.4828 -81.9961 160° South 449 517 36,000  Level Jacksonville Center
07:49PM 31.3633 -81.9486 161° South 449 517 36,000 -60 Level Jacksonville Center
07:50PM 31.2481 -81.8986 160° South 443 510 35,900  Descending Jacksonville Center
07:51PM 31.1308 -81.8539 162° South 449 517 36,000  Climbing Jacksonville Center
07:52PM 31.0114 -81.8017 159° South 449 517 35,900  Descending Jacksonville Center
07:53PM 30.8919 -81.7547 161° South 449 517 36,000  Climbing Jacksonville Center
07:54PM 30.7767 -81.7053 160° South 449 517 35,900  Descending Jacksonville Center
07:55PM 30.6594 -81.6561 160° South 449 517 36,000  Climbing Jacksonville Center
07:56PM 30.5525 -81.6117 160° South 449 517 35,900 -60 Descending Jacksonville Center
07:57PM 30.4328 -81.5628 161° South 449 517 35,900  Level Jacksonville Center
07:58PM 30.3156 -81.5139 160° South 449 517 35,900  Level Jacksonville Center
07:59PM 30.1981 -81.4697 162° South 449 517 36,000  Climbing Jacksonville Center
08:00PM 30.0806 -81.4236 161° South 449 517 35,900  Descending Jacksonville Center
08:01PM 29.9631 -81.3772 161° South 449 517 36,000  Climbing Jacksonville Center
08:02PM 29.8478 -81.3314 161° South 449 517 36,000  Level Jacksonville Center
08:03PM 29.7303 -81.2828 160° South 449 517 36,000  Level Jacksonville Center
08:04PM 29.6106 -81.2372 162° South 449 517 36,000  Level Jacksonville Center
08:05PM 29.4272 -81.1633 161° South 431 496 36,000  Level Miami Center
08:06PM 29.3014 -81.1178 162° South 431 496 36,000 -60 Level Miami Center
08:07PM 29.1881 -81.0731 161° South 436 502 35,900  Descending Miami Center
08:08PM 29.0706 -81.0233 160° South 436 502 36,000  Climbing Miami Center
08:09PM 28.9469 -80.9736 161° South 436 502 35,900  Descending Miami Center
08:10PM 28.8314 -80.9267 160° South 436 502 36,000  Climbing Miami Center
08:11PM 28.7117 -80.8797 161° South 441 507 36,000  Level Miami Center
08:12PM 28.6086 -80.8336 159° South 441 507 36,000  Level Miami Center
08:13PM 28.4786 -80.7864 162° South 441 507 36,000  Level Miami Center
08:14PM 28.3714 -80.7378 158° South 448 516 36,000  Level Miami Center
08:15PM 28.2517 -80.6914 161° South 448 516 36,000  Level Miami Center
08:16PM 28.1339 -80.6450 161° South 448 516 36,000  Level Miami Center
08:17PM 28.0161 -80.6011 162° South 455 524 36,000  Level Miami Center
08:18PM 27.8961 -80.5619 164° South 455 524 36,000 -120 Level Miami Center
08:19PM 27.7594 -80.5175 164° South 466 536 35,800 -1,140 Descending Miami Center
08:20PM 27.6394 -80.4761 163° South 461 531 33,800 -2,880 Descending Miami Center
08:21PM 27.5153 -80.4278 161° South 461 531 30,100 -3,600 Descending Miami Center
08:22PM 27.3956 -80.3772 159° South 461 531 26,700 -3,000 Descending Miami Center
08:23PM 27.2817 -80.3317 160° South 456 525 24,200 -1,380 Descending Miami Center
08:24PM 27.1761 -80.2889 160° South 430 495 24,000 -120 Descending Miami Center
08:25PM 27.0708 -80.2461 160° South 412 474 24,000 -60 Level Miami Center
08:26PM 26.9672 -80.2033 160° South 405 466 23,900 -1,140 Descending Miami Center
08:27PM 26.8661 -80.1611 160° South 399 459 21,800 -2,040 Descending Miami Center
08:28PM 26.7728 -80.1258 161° South 387 445 19,900 -2,160 Descending Miami Center
08:29PM 26.6672 -80.0856 161° South 376 433 17,500 -2,460 Descending Miami Center
08:30PM 26.5694 -80.0692 171° South 366 421 15,000 -2,220 Descending Miami Center
08:31PM 26.4717 -80.0525 171° South 361 415 13,100 -1,680 Descending Miami Center
08:32PM 26.3800 -80.0361 171° South 349 402 11,700 -1,560 Descending Miami Center
08:33PM 26.2906 -80.0197 171° South 344 396 10,000 -900 Descending Miami Center
08:34PM 26.2047 -80.0269 184° South 327 376 9,900 -60 Descending Miami Center
08:35PM 26.1269 -80.0503 195° South 306 352 9,900 -720 Level Miami Center
08:36PM 26.0472 -80.0689 192° South 294 338 8,500 -1,020 Descending Miami Center
08:37PM 25.9736 -80.0947 198° South 288 331 7,900 -300 Descending Miami Center
08:38PM 25.9469 -80.1678 248° West 244 281 7,900 -420 Level Miami Center
08:39PM 25.9408 -80.2461 265° West 234 269 7,100 -1,260 Descending Miami Center
08:41PM 25.9278 -80.3567 263° West 248 285 4,900 -1,560 Descending Miami Center
08:42PM 25.9094 -80.4278 254° West 249 287 3,400 -1,200 Descending Miami Center
08:43PM 25.8592 -80.4261 178° South 187 215 2,500 -960 Descending Miami Center
08:44PM 25.8333 -80.3794 122° Southeast 163 188 1,500 -1,020 Descending Miami Center